sensor_id;sensor_type;location;lat;lon;timestamp;temperature;humidity
21799;DHT22;24973;47.178;15.316;2022-12-18T00:01:16;-4.90;99.90
21799;DHT22;24973;47.178;15.316;2022-12-18T00:04:11;-5.10;99.90
21799;DHT22;24973;47.178;15.316;2022-12-18T00:07:03;-5.10;99.90
21799;DHT22;24973;47.178;15.316;2022-12-18T00:09:52;-5.00;99.90
21799;DHT22;24973;47.178;15.316;2022-12-18T00:12:41;-4.80;99.90
21799;DHT22;24973;47.178;15.316;2022-12-18T00:15:33;-4.80;99.90
21799;DHT22;24973;47.178;15.316;2022-12-18T00:18:21;-4.90;99.90
21799;DHT22;24973;47.178;15.316;2022-12-18T00:21:11;-5.00;99.90
21799;DHT22;24973;47.178;15.316;2022-12-18T00:24:01;-5.20;99.90
21799;DHT22;24973;47.178;15.316;2022-12-18T00:26:50;-5.30;99.90
21799;DHT22;24973;47.178;15.316;2022-12-18T00:29:41;-5.50;99.90
21799;DHT22;24973;47.178;15.316;2022-12-18T00:32:32;-5.60;99.90
21799;DHT22;24973;47.178;15.316;2022-12-18T00:35:21;-5.50;99.90
21799;DHT22;24973;47.178;15.316;2022-12-18T00:38:10;-4.60;99.90
21799;DHT22;24973;47.178;15.316;2022-12-18T00:40:59;-5.30;99.90
21799;DHT22;24973;47.178;15.316;2022-12-18T00:43:47;-5.20;99.90
21799;DHT22;24973;47.178;15.316;2022-12-18T00:46:35;-5.20;99.90
21799;DHT22;24973;47.178;15.316;2022-12-18T00:49:25;-5.40;99.90
21799;DHT22;24973;47.178;15.316;2022-12-18T00:52:14;-5.40;99.90
21799;DHT22;24973;47.178;15.316;2022-12-18T00:55:03;-5.40;99.90
21799;DHT22;24973;47.178;15.316;2022-12-18T00:57:53;-5.60;99.90
21799;DHT22;24973;47.178;15.316;2022-12-18T01:00:42;-5.60;99.90
21799;DHT22;24973;47.178;15.316;2022-12-18T01:03:31;-5.60;99.90
21799;DHT22;24973;47.178;15.316;2022-12-18T01:06:21;-5.80;99.90
21799;DHT22;24973;47.178;15.316;2022-12-18T01:09:10;-5.70;99.90
21799;DHT22;24973;47.178;15.316;2022-12-18T01:11:59;-5.90;99.90
21799;DHT22;24973;47.178;15.316;2022-12-18T01:14:47;-5.40;99.90
21799;DHT22;24973;47.178;15.316;2022-12-18T01:17:36;-5.30;99.90
21799;DHT22;24973;47.178;15.316;2022-12-18T01:20:25;-5.40;99.90
21799;DHT22;24973;47.178;15.316;2022-12-18T01:23:15;-5.40;99.90
21799;DHT22;24973;47.178;15.316;2022-12-18T01:26:05;-5.50;99.90
21799;DHT22;24973;47.178;15.316;2022-12-18T01:28:54;-5.40;99.90
21799;DHT22;24973;47.178;15.316;2022-12-18T01:31:43;-5.80;99.90
21799;DHT22;24973;47.178;15.316;2022-12-18T01:34:32;-5.50;99.90
21799;DHT22;24973;47.178;15.316;2022-12-18T01:37:21;-5.30;99.90
21799;DHT22;24973;47.178;15.316;2022-12-18T01:40:12;-5.20;99.90
21799;DHT22;24973;47.178;15.316;2022-12-18T01:43:00;-5.50;99.90
21799;DHT22;24973;47.178;15.316;2022-12-18T01:45:49;-5.50;99.90
21799;DHT22;24973;47.178;15.316;2022-12-18T01:48:38;-5.60;99.90
21799;DHT22;24973;47.178;15.316;2022-12-18T01:51:28;-5.80;99.90
21799;DHT22;24973;47.178;15.316;2022-12-18T01:54:18;-6.00;99.90
21799;DHT22;24973;47.178;15.316;2022-12-18T01:57:08;-6.20;99.90
21799;DHT22;24973;47.178;15.316;2022-12-18T01:59:59;-5.90;99.90
21799;DHT22;24973;47.178;15.316;2022-12-18T02:02:51;-6.10;99.90
21799;DHT22;24973;47.178;15.316;2022-12-18T02:05:45;-6.20;99.90
21799;DHT22;24973;47.178;15.316;2022-12-18T02:08:41;-6.10;99.90
21799;DHT22;24973;47.178;15.316;2022-12-18T02:11:40;-5.80;99.90
21799;DHT22;24973;47.178;15.316;2022-12-18T02:14:40;-6.10;99.90
21799;DHT22;24973;47.178;15.316;2022-12-18T02:17:36;-6.10;99.90
21799;DHT22;24973;47.178;15.316;2022-12-18T02:20:32;-6.30;99.90
21799;DHT22;24973;47.178;15.316;2022-12-18T02:23:33;-6.00;99.90
21799;DHT22;24973;47.178;15.316;2022-12-18T02:26:37;-6.10;99.90
21799;DHT22;24973;47.178;15.316;2022-12-18T02:29:32;-6.40;99.90
21799;DHT22;24973;47.178;15.316;2022-12-18T02:32:27;-6.30;99.90
21799;DHT22;24973;47.178;15.316;2022-12-18T02:35:20;-6.20;99.90
21799;DHT22;24973;47.178;15.316;2022-12-18T02:38:11;-6.10;99.90
21799;DHT22;24973;47.178;15.316;2022-12-18T02:41:00;-6.10;99.90
21799;DHT22;24973;47.178;15.316;2022-12-18T02:43:58;-6.00;99.90
21799;DHT22;24973;47.178;15.316;2022-12-18T02:46:50;-6.10;99.90
21799;DHT22;24973;47.178;15.316;2022-12-18T02:49:47;-6.20;99.90
21799;DHT22;24973;47.178;15.316;2022-12-18T02:52:47;-6.30;99.90
21799;DHT22;24973;47.178;15.316;2022-12-18T02:55:51;-6.40;99.90
21799;DHT22;24973;47.178;15.316;2022-12-18T02:58:52;-6.30;99.90
21799;DHT22;24973;47.178;15.316;2022-12-18T03:01:52;-6.30;99.90
21799;DHT22;24973;47.178;15.316;2022-12-18T03:04:50;-6.10;99.90
21799;DHT22;24973;47.178;15.316;2022-12-18T03:07:47;-6.20;99.90
21799;DHT22;24973;47.178;15.316;2022-12-18T03:10:43;-5.90;99.90
21799;DHT22;24973;47.178;15.316;2022-12-18T03:13:37;-5.90;99.90
21799;DHT22;24973;47.178;15.316;2022-12-18T03:16:31;-5.80;99.90
21799;DHT22;24973;47.178;15.316;2022-12-18T03:22:16;-5.90;99.90
21799;DHT22;24973;47.178;15.316;2022-12-18T03:25:08;-6.00;99.90
21799;DHT22;24973;47.178;15.316;2022-12-18T03:28:00;-6.10;99.90
21799;DHT22;24973;47.178;15.316;2022-12-18T03:30:54;-6.20;99.90
21799;DHT22;24973;47.178;15.316;2022-12-18T03:33:51;-6.40;99.90
21799;DHT22;24973;47.178;15.316;2022-12-18T03:36:41;-6.50;99.90
21799;DHT22;24973;47.178;15.316;2022-12-18T03:39:30;-6.50;99.90
21799;DHT22;24973;47.178;15.316;2022-12-18T03:42:25;-6.60;99.90
21799;DHT22;24973;47.178;15.316;2022-12-18T03:45:22;-6.50;99.90
21799;DHT22;24973;47.178;15.316;2022-12-18T03:48:16;-6.50;99.90
21799;DHT22;24973;47.178;15.316;2022-12-18T03:51:16;-6.40;99.90
21799;DHT22;24973;47.178;15.316;2022-12-18T03:54:10;-6.40;99.90
21799;DHT22;24973;47.178;15.316;2022-12-18T03:57:06;-6.30;99.90
21799;DHT22;24973;47.178;15.316;2022-12-18T04:00:03;-6.20;99.90
21799;DHT22;24973;47.178;15.316;2022-12-18T04:02:55;-6.10;99.90
21799;DHT22;24973;47.178;15.316;2022-12-18T04:05:45;-6.10;99.90
21799;DHT22;24973;47.178;15.316;2022-12-18T04:08:38;-6.10;99.90
21799;DHT22;24973;47.178;15.316;2022-12-18T04:11:27;-6.20;99.90
21799;DHT22;24973;47.178;15.316;2022-12-18T04:14:16;-6.20;99.90
21799;DHT22;24973;47.178;15.316;2022-12-18T04:17:05;-6.20;99.90
21799;DHT22;24973;47.178;15.316;2022-12-18T04:19:53;-7.20;99.90
21799;DHT22;24973;47.178;15.316;2022-12-18T04:22:42;-6.20;99.90
21799;DHT22;24973;47.178;15.316;2022-12-18T04:25:33;-6.40;99.90
21799;DHT22;24973;47.178;15.316;2022-12-18T04:28:21;-4.90;99.90
21799;DHT22;24973;47.178;15.316;2022-12-18T04:31:10;-6.50;99.90
21799;DHT22;24973;47.178;15.316;2022-12-18T04:34:00;-6.50;99.90
21799;DHT22;24973;47.178;15.316;2022-12-18T04:36:49;-6.50;99.90
21799;DHT22;24973;47.178;15.316;2022-12-18T04:39:38;-6.50;99.90
21799;DHT22;24973;47.178;15.316;2022-12-18T04:42:28;-6.50;99.90
21799;DHT22;24973;47.178;15.316;2022-12-18T04:45:17;-6.50;99.90
21799;DHT22;24973;47.178;15.316;2022-12-18T04:48:05;-6.60;99.90
21799;DHT22;24973;47.178;15.316;2022-12-18T04:50:54;-6.60;99.90
21799;DHT22;24973;47.178;15.316;2022-12-18T04:53:43;-6.50;99.90
21799;DHT22;24973;47.178;15.316;2022-12-18T04:56:32;-6.60;99.90
21799;DHT22;24973;47.178;15.316;2022-12-18T04:59:22;-6.70;99.90
21799;DHT22;24973;47.178;15.316;2022-12-18T05:02:10;-6.80;99.90
21799;DHT22;24973;47.178;15.316;2022-12-18T05:04:59;-6.70;99.90
21799;DHT22;24973;47.178;15.316;2022-12-18T05:07:48;-6.70;99.90
21799;DHT22;24973;47.178;15.316;2022-12-18T05:10:36;-6.70;99.90
21799;DHT22;24973;47.178;15.316;2022-12-18T05:13:25;-6.80;99.90
21799;DHT22;24973;47.178;15.316;2022-12-18T05:16:16;-6.80;99.90
21799;DHT22;24973;47.178;15.316;2022-12-18T05:19:04;-6.80;99.90
21799;DHT22;24973;47.178;15.316;2022-12-18T05:21:53;-6.70;99.90
21799;DHT22;24973;47.178;15.316;2022-12-18T05:24:42;-6.80;99.90
21799;DHT22;24973;47.178;15.316;2022-12-18T05:27:30;-6.80;99.90
21799;DHT22;24973;47.178;15.316;2022-12-18T05:30:19;-6.70;99.90
21799;DHT22;24973;47.178;15.316;2022-12-18T05:33:09;-6.60;99.90
21799;DHT22;24973;47.178;15.316;2022-12-18T05:36:02;-6.50;99.90
21799;DHT22;24973;47.178;15.316;2022-12-18T05:38:52;-6.50;99.90
21799;DHT22;24973;47.178;15.316;2022-12-18T05:41:41;-6.40;99.90
21799;DHT22;24973;47.178;15.316;2022-12-18T05:44:30;-6.30;99.90
21799;DHT22;24973;47.178;15.316;2022-12-18T05:47:18;-6.40;99.90
21799;DHT22;24973;47.178;15.316;2022-12-18T05:50:09;-6.40;99.90
21799;DHT22;24973;47.178;15.316;2022-12-18T05:52:58;-6.60;99.90
21799;DHT22;24973;47.178;15.316;2022-12-18T05:55:46;-6.60;99.90
21799;DHT22;24973;47.178;15.316;2022-12-18T05:58:36;-6.70;99.90
21799;DHT22;24973;47.178;15.316;2022-12-18T06:01:26;-6.80;99.90
21799;DHT22;24973;47.178;15.316;2022-12-18T06:04:15;-6.90;99.90
21799;DHT22;24973;47.178;15.316;2022-12-18T06:07:05;-6.90;99.90
21799;DHT22;24973;47.178;15.316;2022-12-18T06:09:54;-6.90;99.90
21799;DHT22;24973;47.178;15.316;2022-12-18T06:12:43;-6.90;99.90
21799;DHT22;24973;47.178;15.316;2022-12-18T06:15:31;-7.00;99.90
21799;DHT22;24973;47.178;15.316;2022-12-18T06:18:20;-6.90;99.90
21799;DHT22;24973;47.178;15.316;2022-12-18T06:21:09;-6.80;99.90
21799;DHT22;24973;47.178;15.316;2022-12-18T06:23:59;-6.70;99.90
21799;DHT22;24973;47.178;15.316;2022-12-18T06:26:48;-6.60;99.90
21799;DHT22;24973;47.178;15.316;2022-12-18T06:29:37;-6.50;99.90
21799;DHT22;24973;47.178;15.316;2022-12-18T06:32:26;-6.50;99.90
21799;DHT22;24973;47.178;15.316;2022-12-18T06:35:15;-6.50;99.90
21799;DHT22;24973;47.178;15.316;2022-12-18T06:38:03;-6.40;99.90
21799;DHT22;24973;47.178;15.316;2022-12-18T06:40:53;-6.50;99.90
21799;DHT22;24973;47.178;15.316;2022-12-18T06:43:42;-6.60;99.90
21799;DHT22;24973;47.178;15.316;2022-12-18T06:46:31;-6.60;99.90
21799;DHT22;24973;47.178;15.316;2022-12-18T06:49:20;-6.60;99.90
21799;DHT22;24973;47.178;15.316;2022-12-18T06:52:11;-6.50;99.90
21799;DHT22;24973;47.178;15.316;2022-12-18T06:55:00;-6.50;99.90
21799;DHT22;24973;47.178;15.316;2022-12-18T06:57:50;-6.50;99.90
21799;DHT22;24973;47.178;15.316;2022-12-18T07:00:38;-6.70;99.90
21799;DHT22;24973;47.178;15.316;2022-12-18T07:03:27;-6.70;99.90
21799;DHT22;24973;47.178;15.316;2022-12-18T07:06:17;-6.70;99.90
21799;DHT22;24973;47.178;15.316;2022-12-18T07:09:07;-6.90;99.90
21799;DHT22;24973;47.178;15.316;2022-12-18T07:11:56;-4.90;99.90
21799;DHT22;24973;47.178;15.316;2022-12-18T07:14:46;-6.90;99.90
21799;DHT22;24973;47.178;15.316;2022-12-18T07:17:35;-6.90;99.90
21799;DHT22;24973;47.178;15.316;2022-12-18T07:20:24;-6.90;99.90
21799;DHT22;24973;47.178;15.316;2022-12-18T07:23:12;-6.90;99.90
21799;DHT22;24973;47.178;15.316;2022-12-18T07:26:02;-6.80;99.90
21799;DHT22;24973;47.178;15.316;2022-12-18T07:28:54;-6.70;99.90
21799;DHT22;24973;47.178;15.316;2022-12-18T07:31:45;-6.70;99.90
21799;DHT22;24973;47.178;15.316;2022-12-18T07:34:34;-6.70;99.90
21799;DHT22;24973;47.178;15.316;2022-12-18T07:37:23;-6.70;99.90
21799;DHT22;24973;47.178;15.316;2022-12-18T07:40:12;-6.70;99.90
21799;DHT22;24973;47.178;15.316;2022-12-18T07:43:01;-6.70;99.90
21799;DHT22;24973;47.178;15.316;2022-12-18T07:45:50;-6.60;99.90
21799;DHT22;24973;47.178;15.316;2022-12-18T07:48:40;-6.60;99.90
21799;DHT22;24973;47.178;15.316;2022-12-18T07:51:29;-6.60;99.90
21799;DHT22;24973;47.178;15.316;2022-12-18T07:54:18;-6.50;99.90
21799;DHT22;24973;47.178;15.316;2022-12-18T07:57:07;-6.50;99.90
21799;DHT22;24973;47.178;15.316;2022-12-18T08:00:08;-6.40;99.90
21799;DHT22;24973;47.178;15.316;2022-12-18T08:02:59;-6.40;99.90
21799;DHT22;24973;47.178;15.316;2022-12-18T08:05:52;-6.40;99.90
21799;DHT22;24973;47.178;15.316;2022-12-18T08:08:41;-6.40;99.90
21799;DHT22;24973;47.178;15.316;2022-12-18T08:11:30;-6.40;99.90
21799;DHT22;24973;47.178;15.316;2022-12-18T08:14:18;-6.40;99.90
21799;DHT22;24973;47.178;15.316;2022-12-18T08:17:07;-6.40;99.90
21799;DHT22;24973;47.178;15.316;2022-12-18T08:19:56;-6.40;99.90
21799;DHT22;24973;47.178;15.316;2022-12-18T08:22:46;-6.40;99.90
21799;DHT22;24973;47.178;15.316;2022-12-18T08:25:34;-6.40;99.90
21799;DHT22;24973;47.178;15.316;2022-12-18T08:28:23;-6.30;99.90
21799;DHT22;24973;47.178;15.316;2022-12-18T08:31:12;-6.10;99.90
21799;DHT22;24973;47.178;15.316;2022-12-18T08:34:01;-6.00;99.90
21799;DHT22;24973;47.178;15.316;2022-12-18T08:36:50;-5.70;99.90
21799;DHT22;24973;47.178;15.316;2022-12-18T08:39:40;-5.90;99.90
21799;DHT22;24973;47.178;15.316;2022-12-18T08:42:28;-5.80;99.90
21799;DHT22;24973;47.178;15.316;2022-12-18T08:45:35;-5.80;99.90
21799;DHT22;24973;47.178;15.316;2022-12-18T08:48:24;-5.80;99.90
21799;DHT22;24973;47.178;15.316;2022-12-18T08:51:13;-5.70;99.90
21799;DHT22;24973;47.178;15.316;2022-12-18T08:54:04;-5.60;99.90
21799;DHT22;24973;47.178;15.316;2022-12-18T08:56:55;-5.40;99.90
21799;DHT22;24973;47.178;15.316;2022-12-18T08:59:44;-5.50;99.90
21799;DHT22;24973;47.178;15.316;2022-12-18T09:02:32;-5.40;99.90
21799;DHT22;24973;47.178;15.316;2022-12-18T09:05:21;-5.20;99.90
21799;DHT22;24973;47.178;15.316;2022-12-18T09:08:10;-5.10;99.90
21799;DHT22;24973;47.178;15.316;2022-12-18T09:10:59;-4.90;99.90
21799;DHT22;24973;47.178;15.316;2022-12-18T09:13:49;-4.80;99.90
21799;DHT22;24973;47.178;15.316;2022-12-18T09:16:38;-4.80;99.90
21799;DHT22;24973;47.178;15.316;2022-12-18T09:19:27;-4.70;99.90
21799;DHT22;24973;47.178;15.316;2022-12-18T09:22:16;-4.70;99.90
21799;DHT22;24973;47.178;15.316;2022-12-18T09:25:05;-4.60;99.90
21799;DHT22;24973;47.178;15.316;2022-12-18T09:27:55;-4.50;99.90
21799;DHT22;24973;47.178;15.316;2022-12-18T09:30:47;-4.30;99.90
21799;DHT22;24973;47.178;15.316;2022-12-18T09:33:36;-4.10;99.90
21799;DHT22;24973;47.178;15.316;2022-12-18T09:36:33;-4.10;99.90
21799;DHT22;24973;47.178;15.316;2022-12-18T09:39:22;-4.00;99.90
21799;DHT22;24973;47.178;15.316;2022-12-18T09:42:19;-3.90;99.90
21799;DHT22;24973;47.178;15.316;2022-12-18T09:45:13;-3.70;99.90
21799;DHT22;24973;47.178;15.316;2022-12-18T09:48:04;-3.50;99.90
21799;DHT22;24973;47.178;15.316;2022-12-18T09:50:57;-3.30;99.90
21799;DHT22;24973;47.178;15.316;2022-12-18T09:53:53;-3.00;99.90
21799;DHT22;24973;47.178;15.316;2022-12-18T09:56:45;-2.70;99.90
21799;DHT22;24973;47.178;15.316;2022-12-18T09:59:36;-2.40;99.90
21799;DHT22;24973;47.178;15.316;2022-12-18T10:02:29;-2.10;99.90
21799;DHT22;24973;47.178;15.316;2022-12-18T10:05:28;-1.80;99.90
21799;DHT22;24973;47.178;15.316;2022-12-18T10:08:24;-1.80;99.90
21799;DHT22;24973;47.178;15.316;2022-12-18T10:11:32;-1.80;99.90
21799;DHT22;24973;47.178;15.316;2022-12-18T10:14:30;-1.90;99.90
21799;DHT22;24973;47.178;15.316;2022-12-18T10:17:28;-1.90;99.90
21799;DHT22;24973;47.178;15.316;2022-12-18T10:20:31;-1.90;99.90
21799;DHT22;24973;47.178;15.316;2022-12-18T10:23:28;-1.60;99.90
21799;DHT22;24973;47.178;15.316;2022-12-18T10:26:21;-0.80;99.90
21799;DHT22;24973;47.178;15.316;2022-12-18T10:29:12;0.20;99.90
21799;DHT22;24973;47.178;15.316;2022-12-18T10:32:02;1.10;99.90
21799;DHT22;24973;47.178;15.316;2022-12-18T10:34:53;1.90;99.90
21799;DHT22;24973;47.178;15.316;2022-12-18T10:38:20;2.90;99.90
21799;DHT22;24973;47.178;15.316;2022-12-18T10:41:24;4.00;99.90
21799;DHT22;24973;47.178;15.316;2022-12-18T10:44:18;4.80;99.90
21799;DHT22;24973;47.178;15.316;2022-12-18T10:47:14;5.40;99.90
21799;DHT22;24973;47.178;15.316;2022-12-18T10:50:04;5.80;97.50
21799;DHT22;24973;47.178;15.316;2022-12-18T10:52:55;6.10;95.40
21799;DHT22;24973;47.178;15.316;2022-12-18T10:55:47;6.50;94.90
21799;DHT22;24973;47.178;15.316;2022-12-18T10:58:37;6.80;92.80
21799;DHT22;24973;47.178;15.316;2022-12-18T11:01:27;7.10;91.40
21799;DHT22;24973;47.178;15.316;2022-12-18T11:04:20;7.20;90.40
21799;DHT22;24973;47.178;15.316;2022-12-18T11:07:09;7.40;88.30
21799;DHT22;24973;47.178;15.316;2022-12-18T11:10:05;7.40;85.80
21799;DHT22;24973;47.178;15.316;2022-12-18T11:13:12;7.40;85.40
21799;DHT22;24973;47.178;15.316;2022-12-18T11:16:05;7.30;84.80
21799;DHT22;24973;47.178;15.316;2022-12-18T11:18:54;7.30;84.80
21799;DHT22;24973;47.178;15.316;2022-12-18T11:21:44;7.30;85.70
21799;DHT22;24973;47.178;15.316;2022-12-18T11:24:34;7.60;86.00
21799;DHT22;24973;47.178;15.316;2022-12-18T11:27:23;7.80;84.00
21799;DHT22;24973;47.178;15.316;2022-12-18T11:30:22;7.90;82.00
21799;DHT22;24973;47.178;15.316;2022-12-18T11:33:15;7.80;83.20
21799;DHT22;24973;47.178;15.316;2022-12-18T11:36:09;7.90;82.30
21799;DHT22;24973;47.178;15.316;2022-12-18T11:39:03;7.70;82.30
21799;DHT22;24973;47.178;15.316;2022-12-18T11:41:59;7.70;82.60
21799;DHT22;24973;47.178;15.316;2022-12-18T11:44:59;7.50;83.30
21799;DHT22;24973;47.178;15.316;2022-12-18T11:47:56;7.50;85.10
21799;DHT22;24973;47.178;15.316;2022-12-18T11:50:50;7.30;84.30
21799;DHT22;24973;47.178;15.316;2022-12-18T11:53:39;6.90;84.70
21799;DHT22;24973;47.178;15.316;2022-12-18T11:56:31;6.60;86.10
21799;DHT22;24973;47.178;15.316;2022-12-18T11:59:29;6.40;87.50
21799;DHT22;24973;47.178;15.316;2022-12-18T12:02:33;6.30;88.30
21799;DHT22;24973;47.178;15.316;2022-12-18T12:05:47;6.20;88.80
21799;DHT22;24973;47.178;15.316;2022-12-18T12:08:48;6.10;89.90
21799;DHT22;24973;47.178;15.316;2022-12-18T12:11:53;6.20;90.70
21799;DHT22;24973;47.178;15.316;2022-12-18T12:14:54;6.30;89.60
21799;DHT22;24973;47.178;15.316;2022-12-18T12:17:54;6.00;89.40
21799;DHT22;24973;47.178;15.316;2022-12-18T12:20:51;5.30;90.10
21799;DHT22;24973;47.178;15.316;2022-12-18T12:23:49;4.50;91.50
21799;DHT22;24973;47.178;15.316;2022-12-18T12:26:45;3.80;92.70
21799;DHT22;24973;47.178;15.316;2022-12-18T12:29:48;3.40;94.10
21799;DHT22;24973;47.178;15.316;2022-12-18T12:32:58;2.90;94.60
21799;DHT22;24973;47.178;15.316;2022-12-18T12:36:02;2.60;95.40
21799;DHT22;24973;47.178;15.316;2022-12-18T12:38:58;2.30;96.90
21799;DHT22;24973;47.178;15.316;2022-12-18T12:41:49;2.10;97.80
21799;DHT22;24973;47.178;15.316;2022-12-18T12:44:57;1.90;99.00
21799;DHT22;24973;47.178;15.316;2022-12-18T12:47:48;1.60;99.90
21799;DHT22;24973;47.178;15.316;2022-12-18T12:50:39;1.50;99.90
21799;DHT22;24973;47.178;15.316;2022-12-18T12:53:34;1.40;99.90
21799;DHT22;24973;47.178;15.316;2022-12-18T12:56:45;1.40;99.90
21799;DHT22;24973;47.178;15.316;2022-12-18T12:59:46;1.40;99.90
21799;DHT22;24973;47.178;15.316;2022-12-18T13:02:42;1.30;99.90
21799;DHT22;24973;47.178;15.316;2022-12-18T13:05:39;1.10;99.90
21799;DHT22;24973;47.178;15.316;2022-12-18T13:08:54;1.00;99.90
21799;DHT22;24973;47.178;15.316;2022-12-18T13:11:45;0.80;99.90
21799;DHT22;24973;47.178;15.316;2022-12-18T13:14:52;0.70;99.90
21799;DHT22;24973;47.178;15.316;2022-12-18T13:17:43;0.50;99.90
21799;DHT22;24973;47.178;15.316;2022-12-18T13:20:36;0.40;99.90
21799;DHT22;24973;47.178;15.316;2022-12-18T13:23:29;0.30;99.90
21799;DHT22;24973;47.178;15.316;2022-12-18T13:26:31;0.20;99.90
21799;DHT22;24973;47.178;15.316;2022-12-18T13:29:41;0.20;99.90
21799;DHT22;24973;47.178;15.316;2022-12-18T13:32:31;0.20;99.90
21799;DHT22;24973;47.178;15.316;2022-12-18T13:35:40;0.10;99.90
21799;DHT22;24973;47.178;15.316;2022-12-18T13:38:35;-0.10;99.90
21799;DHT22;24973;47.178;15.316;2022-12-18T13:41:27;-0.20;99.90
21799;DHT22;24973;47.178;15.316;2022-12-18T13:44:26;-0.30;99.90
21799;DHT22;24973;47.178;15.316;2022-12-18T13:47:27;-0.30;99.90
21799;DHT22;24973;47.178;15.316;2022-12-18T13:50:25;-0.30;99.90
21799;DHT22;24973;47.178;15.316;2022-12-18T13:53:21;-0.40;99.90
21799;DHT22;24973;47.178;15.316;2022-12-18T13:56:22;-0.50;99.90
21799;DHT22;24973;47.178;15.316;2022-12-18T13:59:15;-0.50;99.90
21799;DHT22;24973;47.178;15.316;2022-12-18T14:02:12;-0.50;99.90
21799;DHT22;24973;47.178;15.316;2022-12-18T14:05:03;-0.50;99.90
21799;DHT22;24973;47.178;15.316;2022-12-18T14:07:53;-0.50;99.90
21799;DHT22;24973;47.178;15.316;2022-12-18T14:10:44;-0.60;99.90
21799;DHT22;24973;47.178;15.316;2022-12-18T14:13:41;-0.60;99.90
21799;DHT22;24973;47.178;15.316;2022-12-18T14:16:31;-0.60;99.90
21799;DHT22;24973;47.178;15.316;2022-12-18T14:19:20;-0.60;99.90
21799;DHT22;24973;47.178;15.316;2022-12-18T14:22:16;-0.70;99.90
21799;DHT22;24973;47.178;15.316;2022-12-18T14:25:16;-0.70;99.90
21799;DHT22;24973;47.178;15.316;2022-12-18T14:28:15;-0.70;99.90
21799;DHT22;24973;47.178;15.316;2022-12-18T14:31:17;-0.70;99.90
21799;DHT22;24973;47.178;15.316;2022-12-18T14:34:15;-0.70;99.90
21799;DHT22;24973;47.178;15.316;2022-12-18T14:37:04;-0.90;99.90
21799;DHT22;24973;47.178;15.316;2022-12-18T14:39:55;-1.00;99.90
21799;DHT22;24973;47.178;15.316;2022-12-18T14:42:45;0.20;99.90
21799;DHT22;24973;47.178;15.316;2022-12-18T14:45:40;-1.00;99.90
21799;DHT22;24973;47.178;15.316;2022-12-18T14:48:36;-1.00;99.90
21799;DHT22;24973;47.178;15.316;2022-12-18T14:51:30;-1.10;99.90
21799;DHT22;24973;47.178;15.316;2022-12-18T14:54:21;-1.10;99.90
21799;DHT22;24973;47.178;15.316;2022-12-18T14:57:20;-1.10;99.90
21799;DHT22;24973;47.178;15.316;2022-12-18T15:00:16;-1.10;99.90
21799;DHT22;24973;47.178;15.316;2022-12-18T15:03:07;-1.10;99.90
21799;DHT22;24973;47.178;15.316;2022-12-18T15:06:15;-1.10;99.90
21799;DHT22;24973;47.178;15.316;2022-12-18T15:09:20;-1.10;99.90
21799;DHT22;24973;47.178;15.316;2022-12-18T15:12:24;-1.10;99.90
21799;DHT22;24973;47.178;15.316;2022-12-18T15:15:46;-1.10;99.90
21799;DHT22;24973;47.178;15.316;2022-12-18T15:18:41;-1.10;99.90
21799;DHT22;24973;47.178;15.316;2022-12-18T15:21:33;-1.10;99.90
21799;DHT22;24973;47.178;15.316;2022-12-18T15:24:26;-1.10;99.90
21799;DHT22;24973;47.178;15.316;2022-12-18T15:27:36;-1.20;99.90
21799;DHT22;24973;47.178;15.316;2022-12-18T15:30:26;-1.30;99.90
21799;DHT22;24973;47.178;15.316;2022-12-18T15:33:24;-1.40;99.90
21799;DHT22;24973;47.178;15.316;2022-12-18T15:36:15;-1.40;99.90
21799;DHT22;24973;47.178;15.316;2022-12-18T15:39:06;-1.40;99.90
21799;DHT22;24973;47.178;15.316;2022-12-18T15:41:55;-1.40;99.90
21799;DHT22;24973;47.178;15.316;2022-12-18T15:45:01;-1.40;99.90
21799;DHT22;24973;47.178;15.316;2022-12-18T15:47:50;-1.40;99.90
21799;DHT22;24973;47.178;15.316;2022-12-18T15:50:38;-1.40;99.90
21799;DHT22;24973;47.178;15.316;2022-12-18T15:53:30;-1.40;99.90
21799;DHT22;24973;47.178;15.316;2022-12-18T15:56:22;-1.40;99.90
21799;DHT22;24973;47.178;15.316;2022-12-18T15:59:28;-1.40;99.90
21799;DHT22;24973;47.178;15.316;2022-12-18T16:02:18;-1.40;99.90
21799;DHT22;24973;47.178;15.316;2022-12-18T16:05:14;-1.40;99.90
21799;DHT22;24973;47.178;15.316;2022-12-18T16:08:04;-1.50;99.90
21799;DHT22;24973;47.178;15.316;2022-12-18T16:10:52;-2.50;99.90
21799;DHT22;24973;47.178;15.316;2022-12-18T16:13:43;-1.30;99.90
21799;DHT22;24973;47.178;15.316;2022-12-18T16:16:32;-1.40;99.90
21799;DHT22;24973;47.178;15.316;2022-12-18T16:19:21;-1.30;99.90
21799;DHT22;24973;47.178;15.316;2022-12-18T16:22:18;-1.40;99.90
21799;DHT22;24973;47.178;15.316;2022-12-18T16:25:17;-1.40;99.90
21799;DHT22;24973;47.178;15.316;2022-12-18T16:28:11;-1.50;99.90
21799;DHT22;24973;47.178;15.316;2022-12-18T16:31:01;-1.50;99.90
21799;DHT22;24973;47.178;15.316;2022-12-18T16:33:50;-1.50;99.90
21799;DHT22;24973;47.178;15.316;2022-12-18T16:36:59;-1.50;99.90
21799;DHT22;24973;47.178;15.316;2022-12-18T16:39:51;-1.20;99.90
21799;DHT22;24973;47.178;15.316;2022-12-18T16:42:41;-1.70;99.90
21799;DHT22;24973;47.178;15.316;2022-12-18T16:45:30;-1.80;99.90
21799;DHT22;24973;47.178;15.316;2022-12-18T16:48:21;-1.90;99.90
21799;DHT22;24973;47.178;15.316;2022-12-18T16:51:10;-1.90;99.90
21799;DHT22;24973;47.178;15.316;2022-12-18T16:53:59;-1.90;99.90
21799;DHT22;24973;47.178;15.316;2022-12-18T16:56:50;-2.00;99.90
21799;DHT22;24973;47.178;15.316;2022-12-18T16:59:39;-1.90;99.90
21799;DHT22;24973;47.178;15.316;2022-12-18T17:02:28;-1.90;99.90
21799;DHT22;24973;47.178;15.316;2022-12-18T17:05:18;-1.90;99.90
21799;DHT22;24973;47.178;15.316;2022-12-18T17:08:06;-1.90;99.90
21799;DHT22;24973;47.178;15.316;2022-12-18T17:10:55;-1.80;99.90
21799;DHT22;24973;47.178;15.316;2022-12-18T17:13:44;-1.80;99.90
21799;DHT22;24973;47.178;15.316;2022-12-18T17:16:33;-1.30;99.90
21799;DHT22;24973;47.178;15.316;2022-12-18T17:19:23;-1.70;99.90
21799;DHT22;24973;47.178;15.316;2022-12-18T17:22:13;-1.70;99.90
21799;DHT22;24973;47.178;15.316;2022-12-18T17:25:02;-1.70;99.90
21799;DHT22;24973;47.178;15.316;2022-12-18T17:27:51;-1.60;99.90
21799;DHT22;24973;47.178;15.316;2022-12-18T17:30:39;-1.60;99.90
21799;DHT22;24973;47.178;15.316;2022-12-18T17:33:28;-1.70;99.90
21799;DHT22;24973;47.178;15.316;2022-12-18T17:36:17;-1.70;99.90
21799;DHT22;24973;47.178;15.316;2022-12-18T17:39:07;-1.70;99.90
21799;DHT22;24973;47.178;15.316;2022-12-18T17:42:03;-1.80;99.90
21799;DHT22;24973;47.178;15.316;2022-12-18T17:44:52;-1.70;99.90
21799;DHT22;24973;47.178;15.316;2022-12-18T17:47:41;-1.80;99.90
21799;DHT22;24973;47.178;15.316;2022-12-18T17:50:32;-1.80;99.90
21799;DHT22;24973;47.178;15.316;2022-12-18T17:53:21;-1.80;99.90
21799;DHT22;24973;47.178;15.316;2022-12-18T17:56:12;-1.70;99.90
21799;DHT22;24973;47.178;15.316;2022-12-18T17:59:02;-1.70;99.90